Time;durP1;ratioP1;P1;durP2;ratioP2;P2;SDS_P1;SDS_P2;PMS_P1;PMS_P2;Temp;Humidity;BMP_temperature;BMP_pressure;BME280_temperature;BME280_humidity;BME280_pressure;Samples;Min_cycle;Max_cycle;Signal;HPM_P1;HPM_P2
2022/05/11 00:01:41;;;;;;;24.63;16.27;;;;;;;14.28;100.00;96414.66;5033269;28;20464;-75
2022/05/11 00:04:09;;;;;;;18.30;15.57;;;;;;;14.48;100.00;96448.19;5036286;28;20481;-75
2022/05/11 00:06:38;;;;;;;20.60;16.17;;;;;;;14.51;100.00;96470.66;5040130;28;20873;-75
2022/05/11 00:09:07;;;;;;;21.10;17.60;;;;;;;14.52;100.00;96455.47;5020113;28;20511;-75
2022/05/11 00:11:34;;;;;;;26.23;17.10;;;;;;;14.66;100.00;96475.16;5039223;28;20508;-75
2022/05/11 00:14:01;;;;;;;23.30;15.97;;;;;;;14.63;100.00;96467.88;5049665;28;20532;-75
2022/05/11 00:16:29;;;;;;;27.57;16.10;;;;;;;14.41;100.00;96445.34;5033252;28;20974;-74
2022/05/11 00:18:56;;;;;;;23.73;17.00;;;;;;;14.48;100.00;96456.16;5032986;28;20802;-75
2022/05/11 00:21:23;;;;;;;24.47;14.83;;;;;;;14.67;100.00;96476.72;5050870;28;20480;-74
2022/05/11 00:23:53;;;;;;;23.43;17.23;;;;;;;14.73;100.00;96469.22;5051055;28;20534;-75
2022/05/11 00:26:20;;;;;;;22.37;15.80;;;;;;;14.73;100.00;96458.59;5032899;28;20441;-75
2022/05/11 00:28:48;;;;;;;22.03;17.60;;;;;;;14.45;100.00;96434.81;5035122;28;20472;-74
2022/05/11 00:31:15;;;;;;;21.83;15.60;;;;;;;14.32;100.00;96425.38;5054981;28;20829;-74
2022/05/11 00:33:42;;;;;;;17.73;15.67;;;;;;;14.44;100.00;96433.28;5037339;28;20429;-74
2022/05/11 00:36:13;;;;;;;25.80;15.60;;;;;;;14.27;100.00;96420.31;5037192;28;20455;-75
2022/05/11 00:38:40;;;;;;;19.30;16.10;;;;;;;14.64;100.00;96466.75;5037182;28;20795;-74
2022/05/11 00:41:08;;;;;;;21.93;16.00;;;;;;;14.38;100.00;96442.59;5036902;28;20453;-75
2022/05/11 00:43:51;;;;;;;18.97;16.07;;;;;;;14.08;100.00;96419.16;5045761;28;20514;-74
2022/05/11 00:46:42;;;;;;;19.63;17.03;;;;;;;14.44;100.00;96455.34;5036895;28;20848;-75
2022/05/11 00:49:35;;;;;;;19.73;15.90;;;;;;;14.05;100.00;96411.13;5039407;28;20522;-74
2022/05/11 00:52:14;;;;;;;15.80;14.30;;;;;;;14.29;100.00;96426.06;5036620;28;20495;-74
2022/05/11 00:54:45;;;;;;;22.50;16.17;;;;;;;14.32;100.00;96452.00;5036712;28;20524;-74
2022/05/11 00:57:25;;;;;;;16.60;14.93;;;;;;;14.39;100.00;96438.81;5040128;28;20428;-74
2022/05/11 00:59:53;;;;;;;16.70;15.17;;;;;;;14.41;100.00;96444.56;5036526;28;20436;-74
2022/05/11 01:02:22;;;;;;;17.90;15.97;;;;;;;14.05;100.00;96398.59;5036436;28;20448;-74
2022/05/11 01:04:53;;;;;;;22.30;16.40;;;;;;;14.13;100.00;96418.88;5036758;28;20420;-75
2022/05/11 01:07:20;;;;;;;26.87;17.30;;;;;;;14.17;100.00;96419.00;5036848;28;20433;-75
2022/05/11 01:09:47;;;;;;;21.93;16.30;;;;;;;14.00;100.00;96417.47;5036315;28;20473;-75
2022/05/11 01:12:17;;;;;;;19.53;15.23;;;;;;;14.13;100.00;96437.50;5036347;28;21009;-75
2022/05/11 01:14:50;;;;;;;18.20;16.40;;;;;;;13.85;100.00;96402.31;5054143;28;20436;-75
2022/05/11 01:17:16;;;;;;;20.57;15.90;;;;;;;13.79;100.00;96444.34;5033281;28;20472;-75
2022/05/11 01:19:46;;;;;;;18.53;16.70;;;;;;;13.68;100.00;96408.00;5036000;28;20437;-75
2022/05/11 01:22:28;;;;;;;23.03;16.10;;;;;;;13.79;100.00;96439.03;5036029;28;20507;-75
2022/05/11 01:24:55;;;;;;;16.53;14.93;;;;;;;13.58;100.00;96423.31;5036166;28;20439;-75
2022/05/11 01:27:21;;;;;;;23.37;16.37;;;;;;;13.77;100.00;96432.50;5036026;28;20937;-75
2022/05/11 01:29:48;;;;;;;22.80;15.53;;;;;;;13.63;100.00;96432.16;5052249;28;20468;-75
2022/05/11 01:32:15;;;;;;;20.70;15.70;;;;;;;13.31;100.00;96403.69;5052467;28;20826;-75
2022/05/11 01:34:42;;;;;;;17.30;15.50;;;;;;;13.42;100.00;96398.63;5053895;28;20429;-75
2022/05/11 01:37:08;;;;;;;17.37;15.60;;;;;;;13.50;100.00;96416.31;5036004;28;20436;-75
2022/05/11 01:39:35;;;;;;;24.70;17.10;;;;;;;13.59;100.00;96427.50;5034682;28;20476;-75
2022/05/11 01:42:02;;;;;;;18.67;16.30;;;;;;;13.56;100.00;96416.81;5052564;28;20469;-75
2022/05/11 01:44:29;;;;;;;22.80;17.70;;;;;;;13.76;100.00;96433.63;5036023;28;20448;-75
2022/05/11 01:46:59;;;;;;;21.13;17.33;;;;;;;13.68;100.00;96422.03;5053867;28;20438;-75
2022/05/11 01:49:27;;;;;;;24.43;16.27;;;;;;;13.56;100.00;96428.22;5053566;28;20465;-75
2022/05/11 01:51:54;;;;;;;19.73;16.33;;;;;;;13.73;100.00;96431.63;5035869;28;20894;-75
2022/05/11 01:54:21;;;;;;;17.40;15.80;;;;;;;13.50;100.00;96402.25;5038947;28;20839;-75
2022/05/11 01:56:47;;;;;;;18.57;16.87;;;;;;;13.60;100.00;96415.00;5043310;28;20434;-75
2022/05/11 01:59:14;;;;;;;24.37;15.47;;;;;;;13.59;100.00;96410.81;5053528;28;20425;-75
2022/05/11 02:01:41;;;;;;;18.60;16.60;;;;;;;13.50;100.00;96434.13;5035670;28;20514;-75
2022/05/11 02:09:41;;;;;;;19.80;17.80;;;;;;;13.30;100.00;96422.63;5052209;28;21087;-75
2022/05/11 02:12:12;;;;;;;24.53;17.93;;;;;;;13.32;100.00;96425.69;5053049;28;20476;-74
2022/05/11 02:14:39;;;;;;;21.43;18.17;;;;;;;13.10;100.00;96421.72;5035144;28;20870;-75
2022/05/11 02:17:06;;;;;;;21.47;16.90;;;;;;;13.15;100.00;96424.09;5032763;28;20479;-75
2022/05/11 02:19:33;;;;;;;21.23;17.33;;;;;;;13.13;100.00;96436.19;5045015;28;20440;-75
2022/05/11 02:22:00;;;;;;;18.53;16.67;;;;;;;13.05;100.00;96423.81;5034904;28;20501;-75
2022/05/11 02:24:27;;;;;;;19.13;16.90;;;;;;;12.90;100.00;96398.78;5035267;28;20441;-75
2022/05/11 02:26:54;;;;;;;27.03;17.90;;;;;;;13.12;100.00;96429.34;5034924;28;20448;-75
2022/05/11 02:29:23;;;;;;;33.80;18.67;;;;;;;12.86;100.00;96425.25;5052842;28;20460;-75
2022/05/11 02:31:50;;;;;;;18.60;16.60;;;;;;;13.16;100.00;96425.66;5050222;28;20473;-75
2022/05/11 02:35:12;;;;;;;23.37;19.33;;;;;;;13.00;100.00;96400.97;5052699;28;20432;-75
2022/05/11 02:37:04;;;;;;;23.93;18.57;;;;;;;13.12;100.00;96426.69;5034801;28;20466;-75
2022/05/11 02:39:31;;;;;;;26.90;16.80;;;;;;;12.89;100.00;96390.06;5052642;28;20475;-75
2022/05/11 02:41:57;;;;;;;26.23;18.40;;;;;;;13.04;100.00;96425.72;5034659;28;20453;-75
2022/05/11 02:44:24;;;;;;;18.30;16.30;;;;;;;12.92;100.00;96415.91;5052637;28;20430;-75
2022/05/11 02:46:51;;;;;;;18.40;16.60;;;;;;;12.26;100.00;96404.97;5052730;28;20461;-75
2022/05/11 02:49:18;;;;;;;27.30;17.80;;;;;;;12.29;100.00;96394.47;5034751;28;20522;-75
2022/05/11 02:51:44;;;;;;;22.60;17.60;;;;;;;12.53;100.00;96416.72;5017913;28;20457;-75
2022/05/11 02:54:11;;;;;;;23.93;17.83;;;;;;;12.36;100.00;96393.91;5036265;28;20502;-75
2022/05/11 02:56:38;;;;;;;20.83;16.97;;;;;;;12.71;100.00;96429.38;5034718;28;20536;-75
2022/05/11 02:59:05;;;;;;;21.33;18.07;;;;;;;12.17;100.00;96360.03;5052346;28;20462;-75
2022/05/11 03:01:32;;;;;;;24.43;17.73;;;;;;;12.78;100.00;96436.75;5034350;28;20487;-75
2022/05/11 03:03:59;;;;;;;20.63;18.20;;;;;;;12.67;100.00;96427.72;5052122;28;20425;-75
2022/05/11 03:06:25;;;;;;;25.20;17.93;;;;;;;12.45;100.00;96391.13;5034598;28;20461;-75
2022/05/11 03:08:52;;;;;;;20.77;18.10;;;;;;;12.36;100.00;96423.84;5034160;28;20518;-75
2022/05/11 03:11:19;;;;;;;19.10;16.83;;;;;;;12.18;100.00;96388.09;5052343;28;20457;-75
2022/05/11 03:13:46;;;;;;;19.27;17.47;;;;;;;12.24;100.00;96407.94;5034126;28;20508;-75
2022/05/11 03:16:13;;;;;;;25.03;17.47;;;;;;;12.26;100.00;96411.03;5041852;28;20468;-75
2022/05/11 03:18:39;;;;;;;28.90;16.43;;;;;;;12.40;100.00;96437.19;5042367;28;20506;-75
2022/05/11 03:21:06;;;;;;;23.00;16.77;;;;;;;12.39;100.00;96431.13;5033833;28;20842;-75
2022/05/11 03:23:33;;;;;;;19.37;17.47;;;;;;;11.86;100.00;96371.22;5034562;28;20548;-75
2022/05/11 03:26:00;;;;;;;23.20;17.60;;;;;;;12.14;100.00;96416.34;5052010;28;20520;-75
2022/05/11 03:28:26;;;;;;;21.13;17.60;;;;;;;12.09;100.00;96417.34;5033678;28;20452;-75
2022/05/11 03:30:53;;;;;;;20.27;18.30;;;;;;;12.10;100.00;96426.09;5051601;28;20460;-75
2022/05/11 03:36:05;;;;;;;20.33;18.27;;;;;;;11.99;100.00;96401.13;5033886;28;20497;-75
2022/05/11 03:38:32;;;;;;;22.60;17.87;;;;;;;12.12;100.00;96424.63;5033824;28;20468;-75
2022/05/11 03:40:59;;;;;;;18.30;16.10;;;;;;;11.51;100.00;96387.56;5051511;28;20448;-75
2022/05/11 03:43:26;;;;;;;19.67;16.80;;;;;;;11.88;100.00;96411.41;5033897;28;20426;-75
2022/05/11 03:45:52;;;;;;;20.03;18.13;;;;;;;11.91;100.00;96425.88;5033745;28;20449;-75
2022/05/11 03:48:19;;;;;;;20.57;18.77;;;;;;;11.59;100.00;96388.53;5033682;28;20452;-75
2022/05/11 03:50:46;;;;;;;21.37;19.13;;;;;;;11.89;100.00;96428.88;5020119;28;20483;-75
2022/05/11 03:53:12;;;;;;;21.27;17.10;;;;;;;11.76;100.00;96383.03;5051512;28;20504;-75
2022/05/11 03:55:39;;;;;;;19.70;17.53;;;;;;;11.93;100.00;96410.44;5017008;28;20449;-75
2022/05/11 03:58:06;;;;;;;18.70;16.93;;;;;;;12.04;100.00;96427.44;5033367;28;20949;-75
2022/05/11 04:00:32;;;;;;;19.77;18.00;;;;;;;11.71;100.00;96401.78;5036581;28;20548;-75
2022/05/11 04:02:59;;;;;;;18.07;16.50;;;;;;;12.04;100.00;96436.16;5026000;28;20556;-75
2022/05/11 04:05:26;;;;;;;19.83;17.70;;;;;;;11.64;100.00;96404.22;5033476;28;20430;-75
2022/05/11 04:07:53;;;;;;;22.20;19.93;;;;;;;11.84;100.00;96431.72;5051222;28;20494;-75
2022/05/11 04:10:20;;;;;;;21.73;19.60;;;;;;;11.98;100.00;96437.47;5049977;28;20469;-75
2022/05/11 04:12:47;;;;;;;20.43;18.43;;;;;;;11.87;100.00;96428.41;5030002;28;20466;-75
2022/05/11 04:15:14;;;;;;;23.50;19.10;;;;;;;12.18;100.00;96427.09;5049083;28;20482;-75
2022/05/11 04:17:42;;;;;;;20.80;18.73;;;;;;;12.05;100.00;96405.13;5043861;28;20461;-73
2022/05/11 04:20:19;;;;;;;20.40;18.63;;;;;;;12.22;100.00;96420.78;5031264;28;20451;-73
2022/05/11 04:22:52;;;;;;;20.33;18.30;;;;;;;12.03;100.00;96402.81;5014489;28;20543;-73
2022/05/11 04:25:18;;;;;;;20.17;18.30;;;;;;;12.21;100.00;96421.88;5033107;28;20442;-73
2022/05/11 04:27:47;;;;;;;19.00;17.30;;;;;;;12.32;100.00;96430.91;5038904;28;20437;-73
2022/05/11 04:30:15;;;;;;;19.60;17.70;;;;;;;12.28;100.00;96430.03;5032995;28;20541;-73
2022/05/11 04:32:42;;;;;;;21.83;19.83;;;;;;;12.19;100.00;96432.03;5050862;28;20433;-73
2022/05/11 04:35:10;;;;;;;18.67;16.93;;;;;;;12.03;100.00;96421.34;5033233;28;20468;-73
2022/05/11 04:37:37;;;;;;;21.40;19.30;;;;;;;11.79;100.00;96397.50;5033267;28;20433;-73
2022/05/11 04:40:04;;;;;;;23.67;19.80;;;;;;;12.30;100.00;96441.09;5039205;28;20428;-73
2022/05/11 04:42:34;;;;;;;22.33;20.10;;;;;;;12.00;100.00;96400.78;5057554;28;20440;-74
2022/05/11 04:45:01;;;;;;;20.67;18.80;;;;;;;12.35;100.00;96450.69;5057379;28;20432;-74
2022/05/11 04:47:28;;;;;;;19.87;17.90;;;;;;;12.46;100.00;96419.94;5039409;28;20437;-74
2022/05/11 04:49:56;;;;;;;22.17;19.30;;;;;;;12.66;100.00;96445.53;5040063;28;20872;-74
2022/05/11 04:52:23;;;;;;;19.93;18.03;;;;;;;12.55;100.00;96406.53;5038791;28;20441;-74
2022/05/11 04:54:49;;;;;;;20.90;19.07;;;;;;;12.81;100.00;96451.22;5049389;28;20488;-74
2022/05/11 04:57:18;;;;;;;21.03;18.87;;;;;;;12.66;100.00;96434.91;5040544;28;20445;-74
2022/05/11 04:59:45;;;;;;;21.57;19.50;;;;;;;12.85;100.00;96450.22;5048846;28;20444;-73
2022/05/11 05:02:17;;;;;;;19.57;17.97;;;;;;;12.77;100.00;96456.44;5040866;28;20445;-74
2022/05/11 05:04:45;;;;;;;22.67;20.67;;;;;;;12.78;100.00;96451.91;5057361;28;20455;-75
2022/05/11 05:07:12;;;;;;;21.20;19.20;;;;;;;12.97;100.00;96460.03;5039929;28;20436;-74
2022/05/11 05:09:39;;;;;;;21.00;19.20;;;;;;;12.90;100.00;96455.28;5040573;28;20579;-74
2022/05/11 05:12:06;;;;;;;23.37;21.00;;;;;;;12.97;100.00;96450.19;5040115;28;20548;-74
2022/05/11 05:14:33;;;;;;;18.97;17.17;;;;;;;13.07;100.00;96456.09;5058255;28;20445;-74
2022/05/11 05:17:05;;;;;;;21.60;19.60;;;;;;;13.04;100.00;96454.91;5056353;28;20441;-74
2022/05/11 05:19:32;;;;;;;19.60;17.90;;;;;;;12.69;100.00;96423.66;5038948;28;20461;-74
2022/05/11 05:22:02;;;;;;;21.37;19.30;;;;;;;13.20;100.00;96460.28;5061123;28;20453;-74
2022/05/11 05:24:30;;;;;;;20.33;18.63;;;;;;;13.18;100.00;96433.28;5048930;28;20439;-74
2022/05/11 05:26:58;;;;;;;19.87;18.07;;;;;;;13.57;100.00;96468.81;5050209;28;20484;-73
2022/05/11 05:32:11;;;;;;;19.50;17.90;;;;;;;13.70;100.00;96477.50;5051885;28;20503;-73
2022/05/11 05:34:38;;;;;;;19.00;17.50;;;;;;;13.63;100.00;96450.75;5050820;28;20487;-73
2022/05/11 05:37:05;;;;;;;19.60;16.80;;;;;;;13.58;100.00;96452.53;5051384;28;20992;-73
2022/05/11 05:39:31;;;;;;;18.17;16.60;;;;;;;13.61;100.00;96457.16;5049906;28;20456;-73
2022/05/11 05:41:58;;;;;;;18.90;17.20;;;;;;;13.66;100.00;96466.00;5048158;28;20511;-73
2022/05/11 05:44:29;;;;;;;19.40;17.80;;;;;;;13.44;100.00;96425.63;5062431;28;20436;-74
2022/05/11 05:47:03;;;;;;;19.57;18.00;;;;;;;13.73;100.00;96466.19;5043069;28;20433;-73
2022/05/11 05:49:30;;;;;;;19.73;18.03;;;;;;;13.76;100.00;96442.38;5043415;28;20445;-73
2022/05/11 05:52:01;;;;;;;17.80;16.20;;;;;;;14.13;100.00;96472.06;5060184;28;20482;-73
2022/05/11 05:54:32;;;;;;;20.10;18.40;;;;;;;14.18;100.00;96469.16;5039649;28;20438;-73
2022/05/11 05:56:59;;;;;;;20.27;17.50;;;;;;;14.15;100.00;96469.84;5040295;28;20430;-73
2022/05/11 05:59:26;;;;;;;18.80;17.20;;;;;;;14.27;100.00;96478.84;5043298;28;21179;-73
2022/05/11 06:01:53;;;;;;;19.07;17.47;;;;;;;14.30;100.00;96447.00;5042937;28;20473;-73
2022/05/11 06:04:20;;;;;;;18.67;17.20;;;;;;;14.49;100.00;96441.75;5060098;28;20426;-73
2022/05/11 06:06:46;;;;;;;18.30;16.50;;;;;;;14.62;100.00;96473.56;5042755;28;20452;-73
2022/05/11 06:09:13;;;;;;;19.43;17.60;;;;;;;14.64;100.00;96472.09;5043214;28;20437;-73
2022/05/11 06:11:41;;;;;;;18.03;16.33;;;;;;;14.68;100.00;96464.94;5060931;28;20446;-73
2022/05/11 06:14:08;;;;;;;18.67;16.97;;;;;;;14.85;100.00;96441.72;5043235;28;20486;-73
2022/05/11 06:16:35;;;;;;;19.90;18.07;;;;;;;15.18;100.00;96449.19;5062596;28;20540;-73
2022/05/11 06:19:02;;;;;;;18.30;16.70;;;;;;;15.87;100.00;96482.00;5044570;28;20506;-73
2022/05/11 06:21:29;;;;;;;17.97;16.50;;;;;;;15.85;100.00;96450.38;5058586;28;20548;-73
2022/05/11 06:23:56;;;;;;;17.73;16.13;;;;;;;15.99;100.00;96475.72;5058430;28;20449;-73
2022/05/11 06:26:23;;;;;;;17.70;15.90;;;;;;;16.13;100.00;96449.25;5041507;28;20464;-73
2022/05/11 06:29:10;;;;;;;17.93;16.33;;;;;;;16.18;100.00;96448.97;5028637;28;20453;-74
2022/05/11 06:31:37;;;;;;;17.20;15.77;;;;;;;16.65;100.00;96448.47;5041708;28;20456;-73
2022/05/11 06:34:06;;;;;;;17.47;15.87;;;;;;;16.98;100.00;96441.66;5057730;28;20498;-73
2022/05/11 06:36:33;;;;;;;15.80;14.60;;;;;;;17.51;100.00;96486.88;5042605;28;20506;-73
2022/05/11 06:38:59;;;;;;;15.87;14.50;;;;;;;17.43;100.00;96486.81;5042638;28;20466;-73
2022/05/11 06:41:29;;;;;;;17.00;15.43;;;;;;;17.43;100.00;96462.75;5058991;28;20433;-73
2022/05/11 06:43:56;;;;;;;17.13;14.60;;;;;;;17.71;100.00;96456.16;5040946;28;20434;-73
2022/05/11 06:46:23;;;;;;;15.27;13.83;;;;;;;17.93;100.00;96457.88;5040674;28;20425;-73
2022/05/11 06:48:50;;;;;;;16.07;14.47;;;;;;;17.69;100.00;96466.44;5045150;28;20442;-73
2022/05/11 06:51:18;;;;;;;17.37;15.57;;;;;;;18.04;100.00;96476.69;5040208;28;20867;-73
2022/05/11 06:59:22;;;;;;;17.97;12.87;;;;;;;18.99;100.00;96473.06;5045352;28;20422;-73
2022/05/11 07:01:57;;;;;;;15.67;12.70;;;;;;;19.37;100.00;96476.25;5057351;28;20472;-73
2022/05/11 07:04:25;;;;;;;25.23;14.03;;;;;;;19.45;100.00;96462.47;5039956;28;20999;-73
2022/05/11 07:06:53;;;;;;;15.50;14.00;;;;;;;19.74;100.00;96484.00;5055739;28;20460;-74
2022/05/11 07:09:22;;;;;;;16.00;12.80;;;;;;;19.92;100.00;96492.09;5057126;28;20465;-73
2022/05/11 07:14:36;;;;;;;14.07;12.87;;;;;;;20.38;100.00;96476.72;5056580;28;20430;-73
2022/05/11 07:17:04;;;;;;;21.13;12.97;;;;;;;20.36;100.00;96481.72;5050441;28;20433;-73
2022/05/11 07:19:32;;;;;;;14.10;11.80;;;;;;;20.67;98.39;96463.25;5045285;28;20453;-73
2022/05/11 07:21:59;;;;;;;18.63;12.40;;;;;;;20.54;98.89;96465.56;5038678;28;20544;-73
2022/05/11 07:24:26;;;;;;;15.83;11.70;;;;;;;20.66;97.42;96469.78;5038097;28;20472;-74
2022/05/11 07:26:54;;;;;;;15.63;11.43;;;;;;;21.00;100.00;96472.75;5056804;28;20418;-73
2022/05/11 07:29:22;;;;;;;12.00;10.77;;;;;;;20.98;96.75;96452.78;5056503;28;20437;-73
2022/05/11 07:31:49;;;;;;;12.30;11.20;;;;;;;21.32;95.46;96478.00;5056375;28;20457;-74
2022/05/11 07:34:16;;;;;;;11.47;10.40;;;;;;;21.22;94.07;96444.56;5055925;28;20492;-73
2022/05/11 07:36:43;;;;;;;10.20;9.50;;;;;;;21.63;93.75;96475.50;5038138;28;20433;-73
2022/05/11 07:39:10;;;;;;;9.93;9.13;;;;;;;21.68;92.25;96445.50;5037321;28;20433;-73
2022/05/11 07:41:37;;;;;;;9.70;8.80;;;;;;;21.80;90.40;96463.88;5054888;28;20480;-73
2022/05/11 07:44:04;;;;;;;9.33;8.53;;;;;;;21.32;87.15;96445.72;5039041;28;20424;-73
2022/05/11 07:46:34;;;;;;;9.37;8.57;;;;;;;20.84;88.97;96406.00;5056780;28;20430;-73
2022/05/11 07:49:03;;;;;;;9.97;9.00;;;;;;;21.38;90.31;96454.16;5056337;28;20418;-73
2022/05/11 07:51:31;;;;;;;9.60;8.53;;;;;;;22.29;88.79;96472.72;5056052;28;20534;-73
2022/05/11 07:53:58;;;;;;;10.07;9.03;;;;;;;21.96;85.20;96431.03;5038925;28;20956;-73
2022/05/11 08:01:56;;;;;;;8.90;8.20;;;;;;;21.97;83.59;96462.97;5038566;28;20445;-73
2022/05/11 08:04:23;;;;;;;8.03;7.43;;;;;;;21.27;83.82;96448.81;5038065;28;20457;-74
2022/05/11 08:06:49;;;;;;;8.30;7.37;;;;;;;21.73;84.78;96463.91;5038393;28;20437;-74
2022/05/11 08:09:16;;;;;;;9.03;8.10;;;;;;;21.61;83.79;96416.69;5038348;28;20421;-74
2022/05/11 08:11:43;;;;;;;9.97;9.07;;;;;;;22.02;81.34;96465.22;5037271;28;20869;-74
2022/05/11 08:14:10;;;;;;;8.57;7.77;;;;;;;21.92;83.26;96441.84;5037616;28;20437;-74
2022/05/11 08:16:36;;;;;;;9.30;8.50;;;;;;;21.88;82.17;96437.66;5052571;28;20418;-73
2022/05/11 08:19:03;;;;;;;7.27;6.77;;;;;;;22.32;80.68;96463.84;5034254;28;20429;-74
2022/05/11 08:21:30;;;;;;;8.07;7.37;;;;;;;21.87;79.49;96433.41;5034156;28;20445;-73
2022/05/11 08:23:57;;;;;;;10.50;7.30;;;;;;;21.93;80.81;96442.63;5034079;28;20471;-74
2022/05/11 08:26:23;;;;;;;7.60;6.90;;;;;;;21.84;81.50;96419.59;5033742;28;20434;-74
2022/05/11 08:28:50;;;;;;;7.50;7.00;;;;;;;22.28;79.04;96433.47;5033650;28;20441;-74
2022/05/11 08:34:02;;;;;;;7.53;7.03;;;;;;;22.05;79.37;96432.16;5051481;28;20414;-73
2022/05/11 08:36:38;;;;;;;8.23;7.43;;;;;;;22.22;78.09;96465.47;5048825;28;20508;-73
2022/05/11 08:39:05;;;;;;;8.43;7.80;;;;;;;22.44;78.08;96447.19;5050121;28;20425;-73
2022/05/11 08:41:34;;;;;;;8.30;7.63;;;;;;;22.74;80.18;96446.47;5051552;28;20544;-73
2022/05/11 08:44:01;;;;;;;8.53;7.57;;;;;;;23.42;77.63;96459.13;5051181;28;20421;-73
2022/05/11 08:47:06;;;;;;;8.77;7.97;;;;;;;22.98;75.95;96452.78;5033521;28;20487;-73
2022/05/11 08:50:04;;;;;;;8.87;8.27;;;;;;;23.27;77.39;96451.25;5036374;28;20433;-73
2022/05/11 08:53:00;;;;;;;6.90;6.30;;;;;;;22.80;74.50;96447.53;5056181;28;20422;-73
2022/05/11 08:55:49;;;;;;;8.50;5.63;;;;;;;22.27;71.71;96453.50;5037638;28;20425;-74
2022/05/11 08:58:23;;;;;;;6.07;5.40;;;;;;;22.37;70.58;96445.31;5037908;28;20456;-74
2022/05/11 09:00:53;;;;;;;6.53;5.00;;;;;;;22.75;69.88;96448.00;5037315;28;20457;-74
2022/05/11 09:03:41;;;;;;;5.40;4.90;;;;;;;22.42;68.59;96450.25;5055646;28;20435;-74
2022/05/11 09:06:18;;;;;;;5.57;5.07;;;;;;;22.39;69.04;96444.91;5026510;28;20445;-74
2022/05/11 09:08:46;;;;;;;5.57;5.10;;;;;;;22.77;67.58;96450.28;5038175;28;20461;-74
2022/05/11 09:11:16;;;;;;;4.27;3.97;;;;;;;23.24;67.64;96451.28;5055466;28;20555;-74
2022/05/11 09:13:43;;;;;;;5.10;4.60;;;;;;;23.31;67.52;96445.78;5037441;28;20445;-74
2022/05/11 09:16:27;;;;;;;4.93;4.53;;;;;;;23.15;64.57;96445.63;5055240;28;20441;-74
2022/05/11 09:18:56;;;;;;;5.63;5.23;;;;;;;23.11;65.82;96415.25;5063352;28;20452;-74
2022/05/11 09:21:36;;;;;;;7.20;5.13;;;;;;;23.23;65.67;96452.44;5054143;28;20444;-74
2022/05/11 09:24:23;;;;;;;5.77;5.30;;;;;;;23.68;66.30;96450.31;5037006;28;20545;-75
2022/05/11 09:27:02;;;;;;;4.83;4.43;;;;;;;23.72;62.76;96445.59;5055243;28;20428;-74
2022/05/11 09:29:42;;;;;;;4.80;4.40;;;;;;;23.89;62.89;96449.97;5054900;28;20515;-74
2022/05/11 09:32:44;;;;;;;4.17;3.87;;;;;;;23.95;60.04;96463.00;5036993;28;20468;-75
2022/05/11 09:35:34;;;;;;;5.80;4.63;;;;;;;24.17;61.28;96464.97;5038161;28;20905;-74
2022/05/11 09:38:30;;;;;;;5.80;5.00;;;;;;;24.11;58.42;96450.38;5054762;28;20430;-75
2022/05/11 09:41:21;;;;;;;5.00;4.30;;;;;;;24.24;58.86;96455.97;5036712;28;20449;-75
2022/05/11 09:43:51;;;;;;;5.47;4.97;;;;;;;24.51;61.16;96445.09;5036826;28;20449;-74
2022/05/11 09:46:27;;;;;;;5.60;5.20;;;;;;;24.43;59.84;96459.91;5036969;28;20528;-75
2022/05/11 09:48:57;;;;;;;7.70;5.00;;;;;;;24.43;58.96;96449.09;5054689;28;20421;-75
2022/05/11 09:51:51;;;;;;;4.17;3.87;;;;;;;24.59;58.53;96451.91;5036829;28;21031;-75
2022/05/11 09:54:42;;;;;;;7.30;5.17;;;;;;;24.01;57.55;96445.16;5025635;28;20461;-74
2022/05/11 09:57:09;;;;;;;6.87;5.30;;;;;;;24.30;56.17;96450.88;5054422;28;20426;-74
2022/05/11 09:59:39;;;;;;;6.10;5.20;;;;;;;24.15;57.71;96445.69;5053844;28;20967;-74
2022/05/11 10:02:24;;;;;;;5.60;5.10;;;;;;;24.25;55.82;96445.91;5035020;28;20493;-74
2022/05/11 10:05:24;;;;;;;7.03;4.70;;;;;;;24.08;56.61;96437.69;5035920;28;20472;-74
2022/05/11 10:08:02;;;;;;;4.93;4.53;;;;;;;23.89;55.46;96392.47;5035880;28;20479;-75
2022/05/11 10:10:41;;;;;;;4.90;4.50;;;;;;;23.99;55.11;96429.34;5035664;28;20491;-74
2022/05/11 10:13:20;;;;;;;5.23;4.73;;;;;;;23.65;56.89;96390.97;5035723;28;20532;-74
2022/05/11 10:21:56;;;;;;;4.60;4.20;;;;;;;24.13;53.66;96418.31;5035286;28;20523;-74
2022/05/11 10:24:31;;;;;;;5.20;4.80;;;;;;;24.64;54.38;96420.91;5035695;28;20933;-74
2022/05/11 10:27:15;;;;;;;5.87;5.47;;;;;;;24.85;53.64;96417.78;5035816;28;20437;-74
2022/05/11 10:30:03;;;;;;;4.67;4.37;;;;;;;25.16;54.96;96388.53;5053662;28;20422;-74
2022/05/11 10:32:36;;;;;;;4.87;4.47;;;;;;;25.54;51.91;96415.16;5035764;28;20469;-76
2022/05/11 10:35:06;;;;;;;5.10;4.70;;;;;;;24.96;51.15;96406.72;5035369;28;20540;-75
2022/05/11 10:37:50;;;;;;;5.10;4.70;;;;;;;24.84;53.01;96393.81;5035347;28;20480;-75
2022/05/11 10:40:36;;;;;;;5.60;5.20;;;;;;;25.12;52.15;96409.53;5035347;28;20472;-75
2022/05/11 10:43:18;;;;;;;5.73;4.93;;;;;;;24.76;51.18;96404.81;5035382;28;20544;-75
2022/05/11 10:46:13;;;;;;;5.27;4.90;;;;;;;24.70;52.24;96376.72;5053018;28;20487;-75
2022/05/11 10:49:04;;;;;;;5.47;5.07;;;;;;;24.35;50.49;96397.09;5053072;28;20425;-74
2022/05/11 10:51:47;;;;;;;5.73;4.40;;;;;;;24.61;51.28;96394.69;5034915;28;20501;-75
2022/05/11 10:54:33;;;;;;;6.50;4.30;;;;;;;24.89;47.97;96396.06;5036636;28;20476;-75
2022/05/11 10:57:26;;;;;;;4.53;4.13;;;;;;;24.90;48.53;96400.28;5052853;28;20478;-74
2022/05/11 11:00:15;;;;;;;5.00;4.53;;;;;;;25.40;48.99;96399.25;5036249;28;20939;-74
2022/05/11 11:02:45;;;;;;;5.80;5.30;;;;;;;25.46;48.11;96386.72;5034932;28;20782;-75
2022/05/11 11:05:18;;;;;;;6.00;4.50;;;;;;;25.64;48.64;96382.41;5052834;28;20427;-75
2022/05/11 11:08:00;;;;;;;5.63;4.70;;;;;;;25.13;48.97;96358.84;5035025;28;20453;-74
2022/05/11 11:10:36;;;;;;;4.93;4.63;;;;;;;25.15;48.97;96378.13;5034517;28;20489;-75
2022/05/11 11:13:24;;;;;;;4.80;4.43;;;;;;;25.35;48.16;96379.59;5035113;28;20536;-75
2022/05/11 11:15:52;;;;;;;5.10;4.53;;;;;;;25.80;48.57;96359.25;5034819;28;20433;-75
2022/05/11 11:18:35;;;;;;;4.63;4.23;;;;;;;25.28;46.69;96366.22;5025862;28;20460;-74
2022/05/11 11:21:03;;;;;;;4.73;4.33;;;;;;;25.38;47.16;96364.47;5034198;28;20468;-74
2022/05/11 11:23:39;;;;;;;4.60;4.20;;;;;;;25.89;48.73;96362.09;5035009;28;20429;-74
2022/05/11 11:26:11;;;;;;;4.47;4.17;;;;;;;26.32;46.10;96363.69;5034426;28;20437;-74
2022/05/11 11:28:41;;;;;;;15.97;5.57;;;;;;;25.69;46.07;96364.16;5052267;28;20483;-74
2022/05/11 11:31:12;;;;;;;3.73;3.43;;;;;;;25.70;46.31;96362.97;5034088;28;20997;-74
2022/05/11 11:34:06;;;;;;;4.23;3.93;;;;;;;25.85;45.26;96362.19;5034548;28;20851;-74
2022/05/11 11:36:40;;;;;;;4.13;3.83;;;;;;;26.08;43.98;96368.59;5051909;28;20528;-75
2022/05/11 11:39:14;;;;;;;4.87;4.47;;;;;;;25.86;45.47;96339.31;5034450;28;20428;-75
2022/05/11 11:41:41;;;;;;;4.47;4.17;;;;;;;26.08;46.45;96358.50;5052259;28;20445;-75
2022/05/11 11:44:20;;;;;;;3.97;3.67;;;;;;;26.35;44.03;96358.16;5034025;28;20449;-75
2022/05/11 11:46:48;;;;;;;4.07;3.77;;;;;;;26.27;44.61;96351.41;5052253;28;20425;-75
2022/05/11 11:49:27;;;;;;;4.67;4.27;;;;;;;26.13;44.65;96349.84;5052168;28;20457;-75
2022/05/11 11:52:06;;;;;;;4.50;4.10;;;;;;;26.00;44.83;96345.56;5033896;28;20472;-74
2022/05/11 11:54:36;;;;;;;3.80;3.50;;;;;;;26.50;45.13;96348.47;5034443;28;20460;-75
2022/05/11 11:57:25;;;;;;;5.20;4.63;;;;;;;26.62;43.45;96338.09;5018333;28;20524;-77
2022/05/11 12:00:00;;;;;;;7.07;3.87;;;;;;;26.81;43.20;96337.13;5052406;28;20436;-75
2022/05/11 12:02:41;;;;;;;3.47;3.27;;;;;;;27.29;42.17;96341.53;5035959;28;20408;-75
2022/05/11 12:05:24;;;;;;;7.97;3.90;;;;;;;27.14;42.06;96350.56;5051780;28;20461;-75
2022/05/11 12:17:00;;;;;;;4.40;3.70;;;;;;;26.62;41.85;96313.69;5034128;28;20981;-75
2022/05/11 12:19:29;;;;;;;5.97;4.10;;;;;;;27.20;43.14;96330.56;5042788;28;20518;-74